PGT1548 LTAC-LTCJ
Flight info
| Callsign | PGT1548 |
|---|---|
| Flight time | 1h 6m |
| Altitude | 35000 |
| Route | GOBIT UG8 MARTI UL614 EZS UW104 ZUITA |
| Aircraft | A21N/M-SDE2E3FGHIRWXY/LB1 |
Departure
| Time | 2026-04-25 17:28 |
|---|---|
| Airport | Esenboğa International Airport (LTAC) |
Arrival
| Time | 2026-04-25 18:34 |
|---|---|
| Airport | Batman Airport (LTCJ) |
| Time | Latitude | Longitude | Altitude | Speed | Heading |
|---|---|---|---|---|---|
| 2026-04-25 16:44 | 40.11558 | 32.99032 | 3119 ft | 0 kts | 138° |
| 2026-04-25 17:18 | 40.11568 | 32.99020 | 3118 ft | 4 kts | 138° |
| 2026-04-25 17:18 | 40.11586 | 32.98998 | 3118 ft | 4 kts | 139° |
| 2026-04-25 17:19 | 40.11605 | 32.98988 | 3118 ft | 5 kts | 200° |
| 2026-04-25 17:19 | 40.11625 | 32.99007 | 3118 ft | 4 kts | 229° |
| 2026-04-25 17:19 | 40.11641 | 32.99034 | 3118 ft | 3 kts | 234° |
| 2026-04-25 17:19 | 40.11642 | 32.99036 | 3118 ft | 5 kts | 234° |
| 2026-04-25 17:24 | 40.11634 | 32.99023 | 3118 ft | 5 kts | 234° |
| 2026-04-25 17:24 | 40.11619 | 32.98972 | 3118 ft | 7 kts | 275° |
| 2026-04-25 17:24 | 40.11647 | 32.98908 | 3118 ft | 9 kts | 306° |
| 2026-04-25 17:25 | 40.11676 | 32.98855 | 3118 ft | 4 kts | 306° |
| 2026-04-25 17:25 | 40.11697 | 32.98818 | 3118 ft | 6 kts | 306° |
| 2026-04-25 17:25 | 40.11723 | 32.98771 | 3118 ft | 6 kts | 307° |
| 2026-04-25 17:25 | 40.11727 | 32.98765 | 3118 ft | 1 kts | 307° |
| 2026-04-25 17:26 | 40.11759 | 32.98708 | 3118 ft | 10 kts | 306° |
| 2026-04-25 17:26 | 40.11804 | 32.98628 | 3118 ft | 12 kts | 306° |
| 2026-04-25 17:26 | 40.11849 | 32.98548 | 3118 ft | 6 kts | 306° |
| 2026-04-25 17:26 | 40.11877 | 32.98497 | 3118 ft | 6 kts | 306° |
| 2026-04-25 17:27 | 40.11896 | 32.98485 | 3118 ft | 4 kts | 4° |
| 2026-04-25 17:27 | 40.11927 | 32.98508 | 3119 ft | 6 kts | 37° |
| 2026-04-25 17:27 | 40.11968 | 32.98548 | 3119 ft | 9 kts | 37° |
| 2026-04-25 17:27 | 40.11990 | 32.98569 | 3119 ft | 16 kts | 37° |
| 2026-04-25 17:28 | 40.12671 | 32.99219 | 3124 ft | 130 kts | 37° |
| 2026-04-25 17:28 | 40.13523 | 33.00039 | 3152 ft | 170 kts | 37° |
| 2026-04-25 17:28 | 40.14442 | 33.00913 | 3763 ft | 165 kts | 40° |
| 2026-04-25 17:28 | 40.15337 | 33.01920 | 4332 ft | 170 kts | 41° |
| 2026-04-25 17:29 | 40.16248 | 33.02902 | 4914 ft | 175 kts | 39° |
| 2026-04-25 17:29 | 40.17253 | 33.03955 | 5392 ft | 196 kts | 39° |
| 2026-04-25 17:29 | 40.18368 | 33.05136 | 5940 ft | 215 kts | 39° |
| 2026-04-25 17:29 | 40.19540 | 33.06436 | 6577 ft | 228 kts | 45° |
| 2026-04-25 17:30 | 40.20448 | 33.08250 | 6995 ft | 250 kts | 72° |
| 2026-04-25 17:30 | 40.20634 | 33.10537 | 7557 ft | 262 kts | 100° |
| 2026-04-25 17:30 | 40.19926 | 33.12789 | 8043 ft | 277 kts | 126° |
| 2026-04-25 17:30 | 40.18703 | 33.14778 | 8854 ft | 282 kts | 131° |
| 2026-04-25 17:31 | 40.17430 | 33.16751 | 9735 ft | 286 kts | 131° |
| 2026-04-25 17:31 | 40.16155 | 33.18771 | 10567 ft | 290 kts | 130° |
| 2026-04-25 17:31 | 40.14838 | 33.20898 | 10995 ft | 311 kts | 130° |
| 2026-04-25 17:31 | 40.13444 | 33.23175 | 11396 ft | 330 kts | 129° |
| 2026-04-25 17:32 | 40.11992 | 33.25561 | 12069 ft | 338 kts | 129° |
| 2026-04-25 17:32 | 40.10520 | 33.27991 | 12846 ft | 343 kts | 129° |
| 2026-04-25 17:32 | 40.09052 | 33.30420 | 13637 ft | 348 kts | 129° |
| 2026-04-25 17:32 | 40.07542 | 33.32923 | 14360 ft | 352 kts | 129° |
| 2026-04-25 17:33 | 40.06016 | 33.35453 | 15059 ft | 357 kts | 129° |
| 2026-04-25 17:33 | 40.04467 | 33.38010 | 15744 ft | 361 kts | 129° |
| 2026-04-25 17:33 | 40.02901 | 33.40593 | 16436 ft | 365 kts | 129° |
| 2026-04-25 17:33 | 40.01345 | 33.43231 | 17131 ft | 369 kts | 126° |
| 2026-04-25 17:34 | 39.99883 | 33.46008 | 17825 ft | 374 kts | 125° |
| 2026-04-25 17:34 | 39.98420 | 33.48836 | 18495 ft | 378 kts | 125° |
| 2026-04-25 17:34 | 39.96942 | 33.51694 | 19087 ft | 381 kts | 125° |
| 2026-04-25 17:34 | 39.95450 | 33.54567 | 19685 ft | 385 kts | 125° |
| 2026-04-25 17:35 | 39.93941 | 33.57465 | 20284 ft | 388 kts | 126° |
| 2026-04-25 17:35 | 39.92420 | 33.60384 | 20855 ft | 391 kts | 126° |
| 2026-04-25 17:35 | 39.90882 | 33.63329 | 21432 ft | 395 kts | 126° |
| 2026-04-25 17:35 | 39.89347 | 33.66268 | 22002 ft | 398 kts | 126° |
| 2026-04-25 17:36 | 39.87763 | 33.69293 | 22570 ft | 401 kts | 126° |
| 2026-04-25 17:36 | 39.86200 | 33.72264 | 23131 ft | 404 kts | 126° |
| 2026-04-25 17:36 | 39.84573 | 33.75257 | 23672 ft | 407 kts | 130° |
| 2026-04-25 17:36 | 39.82766 | 33.78114 | 24122 ft | 409 kts | 133° |
| 2026-04-25 17:37 | 39.80915 | 33.80944 | 24564 ft | 413 kts | 133° |
| 2026-04-25 17:37 | 39.79053 | 33.83809 | 25011 ft | 416 kts | 131° |
| 2026-04-25 17:37 | 39.77531 | 33.87029 | 25449 ft | 424 kts | 115° |
| 2026-04-25 17:37 | 39.76721 | 33.90753 | 25884 ft | 430 kts | 103° |
| 2026-04-25 17:38 | 39.75892 | 33.94475 | 26316 ft | 430 kts | 113° |
| 2026-04-25 17:38 | 39.75533 | 33.95710 | 26461 ft | 430 kts | 114° |
| 2026-04-25 17:38 | 39.73724 | 34.01769 | 27175 ft | 435 kts | 113° |
| 2026-04-25 17:38 | 39.72678 | 34.05466 | 27573 ft | 437 kts | 112° |
| 2026-04-25 17:39 | 39.71658 | 34.09195 | 27974 ft | 440 kts | 112° |
| 2026-04-25 17:39 | 39.70642 | 34.12960 | 28364 ft | 442 kts | 112° |
| 2026-04-25 17:39 | 39.69631 | 34.16736 | 28752 ft | 444 kts | 112° |
| 2026-04-25 17:39 | 39.68615 | 34.20536 | 29134 ft | 446 kts | 112° |
| 2026-04-25 17:40 | 39.67607 | 34.24303 | 29519 ft | 448 kts | 112° |
| 2026-04-25 17:40 | 39.66576 | 34.28132 | 29870 ft | 451 kts | 112° |
| 2026-04-25 17:40 | 39.65522 | 34.32032 | 30208 ft | 453 kts | 112° |
| 2026-04-25 17:40 | 39.64492 | 34.35840 | 30530 ft | 454 kts | 112° |
| 2026-04-25 17:41 | 39.63443 | 34.39714 | 30831 ft | 456 kts | 112° |
| 2026-04-25 17:41 | 39.62387 | 34.43605 | 31146 ft | 457 kts | 112° |
| 2026-04-25 17:41 | 39.61330 | 34.47501 | 31520 ft | 457 kts | 112° |
| 2026-04-25 17:41 | 39.60275 | 34.51376 | 31917 ft | 456 kts | 112° |
| 2026-04-25 17:42 | 39.59217 | 34.55254 | 32277 ft | 455 kts | 112° |
| 2026-04-25 17:42 | 39.58163 | 34.59114 | 32633 ft | 454 kts | 112° |
| 2026-04-25 17:42 | 39.57106 | 34.62977 | 32980 ft | 454 kts | 112° |
| 2026-04-25 17:42 | 39.56050 | 34.66831 | 33340 ft | 453 kts | 112° |
| 2026-04-25 17:43 | 39.54994 | 34.70671 | 33679 ft | 452 kts | 112° |
| 2026-04-25 17:43 | 39.53928 | 34.74507 | 34008 ft | 452 kts | 112° |
| 2026-04-25 17:43 | 39.52874 | 34.78286 | 34283 ft | 451 kts | 112° |
| 2026-04-25 17:43 | 39.51800 | 34.82166 | 34521 ft | 452 kts | 112° |
| 2026-04-25 17:44 | 39.50748 | 34.85999 | 34759 ft | 451 kts | 112° |
| 2026-04-25 17:44 | 39.49709 | 34.89778 | 34993 ft | 451 kts | 112° |
| 2026-04-25 17:44 | 39.48650 | 34.93616 | 35094 ft | 455 kts | 112° |
| 2026-04-25 17:44 | 39.47585 | 34.97473 | 35093 ft | 455 kts | 112° |
| 2026-04-25 17:45 | 39.46159 | 35.02625 | 35073 ft | 454 kts | 112° |
| 2026-04-25 17:45 | 39.43313 | 35.12863 | 35060 ft | 454 kts | 112° |
| 2026-04-25 17:46 | 39.41173 | 35.20553 | 35059 ft | 454 kts | 112° |
| 2026-04-25 17:46 | 39.39018 | 35.28236 | 35057 ft | 454 kts | 112° |
| 2026-04-25 17:47 | 39.36866 | 35.35892 | 35054 ft | 454 kts | 112° |
| 2026-04-25 17:47 | 39.34704 | 35.43564 | 35051 ft | 454 kts | 112° |
| 2026-04-25 17:48 | 39.31818 | 35.53761 | 35058 ft | 454 kts | 112° |
| 2026-04-25 17:49 | 39.29645 | 35.61422 | 35060 ft | 454 kts | 112° |
| 2026-04-25 17:49 | 39.27466 | 35.69077 | 35050 ft | 454 kts | 113° |
| 2026-04-25 17:50 | 39.25260 | 35.76731 | 35064 ft | 454 kts | 113° |
| 2026-04-25 17:50 | 39.23077 | 35.84374 | 35071 ft | 454 kts | 113° |
| 2026-04-25 17:51 | 39.20884 | 35.92026 | 35066 ft | 455 kts | 113° |
| 2026-04-25 17:51 | 39.18686 | 35.99686 | 35069 ft | 464 kts | 113° |
| 2026-04-25 17:52 | 39.16409 | 36.07567 | 35079 ft | 473 kts | 114° |
| 2026-04-25 17:52 | 39.14104 | 36.15512 | 35066 ft | 473 kts | 113° |
| 2026-04-25 17:53 | 39.11798 | 36.23466 | 35070 ft | 473 kts | 114° |
| 2026-04-25 17:53 | 39.09486 | 36.31352 | 35069 ft | 473 kts | 114° |
| 2026-04-25 17:54 | 39.07173 | 36.39288 | 35063 ft | 473 kts | 114° |
| 2026-04-25 17:54 | 39.04855 | 36.47223 | 35062 ft | 473 kts | 114° |
| 2026-04-25 17:55 | 39.02519 | 36.55157 | 35060 ft | 474 kts | 114° |
| 2026-04-25 17:55 | 39.00181 | 36.63079 | 35059 ft | 474 kts | 114° |
| 2026-04-25 17:56 | 38.97836 | 36.71005 | 35076 ft | 474 kts | 114° |
| 2026-04-25 17:56 | 38.95494 | 36.78909 | 35066 ft | 473 kts | 114° |
| 2026-04-25 17:57 | 38.93146 | 36.86809 | 35076 ft | 473 kts | 114° |
| 2026-04-25 17:57 | 38.90806 | 36.94653 | 35066 ft | 473 kts | 114° |
| 2026-04-25 17:58 | 38.88443 | 37.02537 | 35062 ft | 473 kts | 114° |
| 2026-04-25 17:58 | 38.86082 | 37.10409 | 35077 ft | 473 kts | 114° |
| 2026-04-25 17:59 | 38.83710 | 37.18285 | 35065 ft | 473 kts | 114° |
| 2026-04-25 17:59 | 38.81326 | 37.26153 | 35079 ft | 473 kts | 115° |
| 2026-04-25 18:00 | 38.78929 | 37.33990 | 35072 ft | 471 kts | 115° |
| 2026-04-25 18:00 | 38.76549 | 37.41799 | 35074 ft | 468 kts | 114° |
| 2026-04-25 18:01 | 38.74181 | 37.49615 | 35078 ft | 475 kts | 114° |
| 2026-04-25 18:01 | 38.71792 | 37.57512 | 35064 ft | 476 kts | 115° |
| 2026-04-25 18:02 | 38.69370 | 37.65431 | 35070 ft | 477 kts | 115° |
| 2026-04-25 18:02 | 38.66948 | 37.73323 | 35074 ft | 477 kts | 115° |
| 2026-04-25 18:03 | 38.64513 | 37.81215 | 35060 ft | 477 kts | 115° |
| 2026-04-25 18:03 | 38.62071 | 37.89100 | 35074 ft | 476 kts | 115° |
| 2026-04-25 18:04 | 38.59648 | 37.96927 | 35074 ft | 477 kts | 115° |
| 2026-04-25 18:04 | 38.57208 | 38.04804 | 35078 ft | 476 kts | 115° |
| 2026-04-25 18:05 | 38.54762 | 38.12664 | 35078 ft | 474 kts | 116° |
| 2026-04-25 18:05 | 38.52335 | 38.20423 | 35075 ft | 467 kts | 116° |
| 2026-04-25 18:06 | 38.49916 | 38.28149 | 35080 ft | 473 kts | 116° |
| 2026-04-25 18:06 | 38.47461 | 38.35959 | 35065 ft | 475 kts | 116° |
| 2026-04-25 18:07 | 38.45034 | 38.43658 | 34782 ft | 457 kts | 116° |
| 2026-04-25 18:07 | 38.43859 | 38.47377 | 34519 ft | 450 kts | 116° |
| 2026-04-25 18:07 | 38.42693 | 38.51068 | 34272 ft | 446 kts | 117° |
| 2026-04-25 18:07 | 38.41536 | 38.54729 | 34025 ft | 444 kts | 117° |
| 2026-04-25 18:08 | 38.40381 | 38.58365 | 33746 ft | 442 kts | 117° |
| 2026-04-25 18:08 | 38.39236 | 38.61941 | 33474 ft | 441 kts | 117° |
| 2026-04-25 18:08 | 38.38091 | 38.65559 | 33205 ft | 439 kts | 117° |
| 2026-04-25 18:08 | 38.36943 | 38.69164 | 32938 ft | 437 kts | 117° |
| 2026-04-25 18:09 | 38.35800 | 38.72743 | 32676 ft | 436 kts | 117° |
| 2026-04-25 18:09 | 38.34654 | 38.76306 | 32416 ft | 434 kts | 117° |
| 2026-04-25 18:09 | 38.33515 | 38.79850 | 32155 ft | 432 kts | 117° |
| 2026-04-25 18:10 | 38.31254 | 38.86928 | 31633 ft | 429 kts | 117° |
| 2026-04-25 18:10 | 38.30130 | 38.90436 | 31387 ft | 427 kts | 117° |
| 2026-04-25 18:10 | 38.29012 | 38.93934 | 31138 ft | 425 kts | 116° |
| 2026-04-25 18:10 | 38.27895 | 38.97408 | 30880 ft | 424 kts | 116° |
| 2026-04-25 18:11 | 38.26787 | 39.00876 | 30531 ft | 421 kts | 116° |
| 2026-04-25 18:11 | 38.25688 | 39.04322 | 30094 ft | 418 kts | 116° |
| 2026-04-25 18:11 | 38.24592 | 39.07733 | 29557 ft | 416 kts | 116° |
| 2026-04-25 18:11 | 38.23493 | 39.11129 | 29046 ft | 413 kts | 116° |
| 2026-04-25 18:12 | 38.22405 | 39.14495 | 28569 ft | 411 kts | 116° |
| 2026-04-25 18:12 | 38.21322 | 39.17846 | 28114 ft | 408 kts | 116° |
| 2026-04-25 18:12 | 38.20249 | 39.21164 | 27675 ft | 404 kts | 116° |
| 2026-04-25 18:12 | 38.19195 | 39.24415 | 27232 ft | 402 kts | 116° |
| 2026-04-25 18:13 | 38.18129 | 39.27696 | 26780 ft | 400 kts | 116° |
| 2026-04-25 18:13 | 38.17068 | 39.30957 | 26330 ft | 398 kts | 116° |
| 2026-04-25 18:13 | 38.16008 | 39.34204 | 25886 ft | 396 kts | 116° |
| 2026-04-25 18:14 | 38.13896 | 39.40621 | 25049 ft | 392 kts | 116° |
| 2026-04-25 18:14 | 38.12851 | 39.43821 | 24607 ft | 390 kts | 115° |
| 2026-04-25 18:14 | 38.11815 | 39.46997 | 24154 ft | 388 kts | 115° |
| 2026-04-25 18:14 | 38.10783 | 39.50147 | 23715 ft | 384 kts | 115° |
| 2026-04-25 18:15 | 38.09769 | 39.53255 | 23210 ft | 379 kts | 115° |
| 2026-04-25 18:15 | 38.08770 | 39.56323 | 22782 ft | 373 kts | 115° |
| 2026-04-25 18:15 | 38.07780 | 39.59354 | 22354 ft | 370 kts | 115° |
| 2026-04-25 18:15 | 38.06794 | 39.62357 | 21922 ft | 368 kts | 115° |
| 2026-04-25 18:16 | 38.05809 | 39.65352 | 21483 ft | 366 kts | 115° |
| 2026-04-25 18:16 | 38.04844 | 39.68279 | 21052 ft | 362 kts | 115° |
| 2026-04-25 18:16 | 38.02913 | 39.74126 | 20168 ft | 357 kts | 115° |
| 2026-04-25 18:17 | 38.01958 | 39.77017 | 19730 ft | 354 kts | 114° |
| 2026-04-25 18:17 | 38.01010 | 39.79885 | 19297 ft | 351 kts | 114° |
| 2026-04-25 18:17 | 38.00066 | 39.82735 | 18872 ft | 349 kts | 114° |
| 2026-04-25 18:17 | 37.99127 | 39.85565 | 18446 ft | 347 kts | 114° |
| 2026-04-25 18:18 | 37.98189 | 39.88381 | 17974 ft | 345 kts | 114° |
| 2026-04-25 18:18 | 37.97258 | 39.91169 | 17496 ft | 343 kts | 114° |
| 2026-04-25 18:18 | 37.96335 | 39.93957 | 17043 ft | 341 kts | 115° |
| 2026-04-25 18:18 | 37.95418 | 39.96712 | 16623 ft | 338 kts | 115° |
| 2026-04-25 18:19 | 37.94506 | 39.99446 | 16243 ft | 335 kts | 115° |
| 2026-04-25 18:19 | 37.93595 | 40.02160 | 15865 ft | 334 kts | 115° |
| 2026-04-25 18:19 | 37.92690 | 40.04866 | 15573 ft | 334 kts | 115° |
| 2026-04-25 18:19 | 37.91789 | 40.07581 | 15314 ft | 333 kts | 115° |
| 2026-04-25 18:20 | 37.90890 | 40.10286 | 15056 ft | 333 kts | 115° |
| 2026-04-25 18:20 | 37.89989 | 40.12988 | 14819 ft | 333 kts | 115° |
| 2026-04-25 18:20 | 37.89088 | 40.15683 | 14580 ft | 332 kts | 116° |
| 2026-04-25 18:20 | 37.88194 | 40.18352 | 14346 ft | 332 kts | 116° |
| 2026-04-25 18:21 | 37.87329 | 40.21046 | 14109 ft | 332 kts | 112° |
| 2026-04-25 18:21 | 37.86649 | 40.23841 | 13844 ft | 332 kts | 109° |
| 2026-04-25 18:21 | 37.86016 | 40.26648 | 13518 ft | 330 kts | 108° |
| 2026-04-25 18:21 | 37.85383 | 40.29432 | 13198 ft | 329 kts | 109° |
| 2026-04-25 18:22 | 37.84746 | 40.32209 | 12867 ft | 328 kts | 108° |
| 2026-04-25 18:22 | 37.84531 | 40.33143 | 12760 ft | 328 kts | 108° |
| 2026-04-25 18:22 | 37.83485 | 40.37739 | 12178 ft | 324 kts | 108° |
| 2026-04-25 18:22 | 37.82868 | 40.40456 | 11826 ft | 319 kts | 108° |
| 2026-04-25 18:23 | 37.82255 | 40.43140 | 11524 ft | 317 kts | 108° |
| 2026-04-25 18:23 | 37.81640 | 40.45823 | 11197 ft | 317 kts | 108° |
| 2026-04-25 18:23 | 37.81023 | 40.48506 | 10868 ft | 315 kts | 108° |
| 2026-04-25 18:23 | 37.80421 | 40.51121 | 10553 ft | 304 kts | 108° |
| 2026-04-25 18:24 | 37.79840 | 40.53643 | 10346 ft | 293 kts | 108° |
| 2026-04-25 18:24 | 37.79281 | 40.56061 | 10144 ft | 281 kts | 108° |
| 2026-04-25 18:24 | 37.78736 | 40.58415 | 9832 ft | 276 kts | 108° |
| 2026-04-25 18:24 | 37.78208 | 40.60700 | 9462 ft | 273 kts | 108° |
| 2026-04-25 18:25 | 37.77678 | 40.62992 | 9087 ft | 271 kts | 108° |
| 2026-04-25 18:25 | 37.77152 | 40.65259 | 8715 ft | 267 kts | 108° |
| 2026-04-25 18:25 | 37.76632 | 40.67506 | 8341 ft | 265 kts | 108° |
| 2026-04-25 18:25 | 37.76116 | 40.69726 | 7924 ft | 262 kts | 108° |
| 2026-04-25 18:26 | 37.75605 | 40.71924 | 7515 ft | 259 kts | 108° |
| 2026-04-25 18:26 | 37.75099 | 40.74100 | 7116 ft | 257 kts | 108° |
| 2026-04-25 18:26 | 37.74603 | 40.76235 | 6846 ft | 249 kts | 107° |
| 2026-04-25 18:26 | 37.74121 | 40.78298 | 6566 ft | 242 kts | 107° |
| 2026-04-25 18:27 | 37.73647 | 40.80330 | 6218 ft | 240 kts | 108° |
| 2026-04-25 18:27 | 37.73175 | 40.82348 | 6008 ft | 240 kts | 108° |
| 2026-04-25 18:27 | 37.72701 | 40.84373 | 5977 ft | 240 kts | 108° |
| 2026-04-25 18:27 | 37.72227 | 40.86399 | 5982 ft | 240 kts | 108° |
| 2026-04-25 18:28 | 37.71755 | 40.88417 | 5993 ft | 240 kts | 107° |
| 2026-04-25 18:28 | 37.71285 | 40.90431 | 5997 ft | 240 kts | 108° |
| 2026-04-25 18:28 | 37.70824 | 40.92405 | 5993 ft | 225 kts | 108° |
| 2026-04-25 18:29 | 37.70106 | 40.96085 | 5979 ft | 216 kts | 90° |
| 2026-04-25 18:29 | 37.70538 | 40.97894 | 6014 ft | 222 kts | 60° |
| 2026-04-25 18:30 | 37.74572 | 41.00687 | 4902 ft | 223 kts | 25° |
| 2026-04-25 18:30 | 37.75992 | 41.01466 | 4532 ft | 222 kts | 25° |
| 2026-04-25 18:30 | 37.77387 | 41.02270 | 4219 ft | 217 kts | 27° |
| 2026-04-25 18:30 | 37.78714 | 41.03065 | 4067 ft | 203 kts | 27° |
| 2026-04-25 18:31 | 37.79930 | 41.03799 | 3949 ft | 188 kts | 26° |
| 2026-04-25 18:31 | 37.81059 | 41.04484 | 3942 ft | 176 kts | 26° |
| 2026-04-25 18:31 | 37.82164 | 41.05153 | 3840 ft | 175 kts | 26° |
| 2026-04-25 18:31 | 37.83260 | 41.05817 | 3643 ft | 174 kts | 26° |
| 2026-04-25 18:32 | 37.84353 | 41.06480 | 3429 ft | 174 kts | 26° |
| 2026-04-25 18:32 | 37.85383 | 41.07103 | 3176 ft | 152 kts | 26° |
| 2026-04-25 18:32 | 37.86315 | 41.07669 | 2965 ft | 147 kts | 26° |
| 2026-04-25 18:32 | 37.87227 | 41.08222 | 2783 ft | 145 kts | 26° |
| 2026-04-25 18:33 | 37.88127 | 41.08771 | 2607 ft | 142 kts | 26° |
| 2026-04-25 18:33 | 37.89004 | 41.09312 | 2425 ft | 139 kts | 26° |
| 2026-04-25 18:33 | 37.89871 | 41.09836 | 2213 ft | 138 kts | 25° |
| 2026-04-25 18:33 | 37.90443 | 41.10183 | 2097 ft | 137 kts | 26° |
| 2026-04-25 18:34 | 37.91301 | 41.10695 | 1929 ft | 136 kts | 26° |
| 2026-04-25 18:34 | 37.92142 | 41.11210 | 1830 ft | 125 kts | 24° |
| 2026-04-25 18:34 | 37.92803 | 41.11600 | 1832 ft | 81 kts | 25° |
| 2026-04-25 18:34 | 37.93159 | 41.11815 | 1835 ft | 45 kts | 25° |
| 2026-04-25 18:35 | 37.93488 | 41.12011 | 1841 ft | 52 kts | 27° |
| 2026-04-25 18:35 | 37.93802 | 41.12204 | 1842 ft | 50 kts | 25° |
| 2026-04-25 18:35 | 37.93925 | 41.12278 | 1843 ft | 11 kts | 26° |
| 2026-04-25 18:35 | 37.94031 | 41.12338 | 1844 ft | 18 kts | 26° |
| 2026-04-25 18:36 | 37.94138 | 41.12368 | 1846 ft | 17 kts | 341° |
| 2026-04-25 18:36 | 37.94251 | 41.12318 | 1845 ft | 18 kts | 341° |
| 2026-04-25 18:36 | 37.94376 | 41.12268 | 1844 ft | 20 kts | 343° |
| 2026-04-25 18:36 | 37.94466 | 41.12230 | 1844 ft | 10 kts | 341° |
| 2026-04-25 18:37 | 37.94482 | 41.12223 | 1844 ft | 2 kts | 341° |
| 2026-04-25 18:37 | 37.94503 | 41.12212 | 1844 ft | 5 kts | 324° |
| 2026-04-25 18:37 | 37.94507 | 41.12164 | 1844 ft | 7 kts | 251° |
| 2026-04-25 18:37 | 37.94491 | 41.12101 | 1844 ft | 7 kts | 252° |
| 2026-04-25 18:38 | 37.94523 | 41.12058 | 1844 ft | 8 kts | 339° |
| 2026-04-25 18:38 | 37.94544 | 41.12049 | 1844 ft | 0 kts | 343° |